createdAt,value
2022-09-23T00:01:07.145Z,81.78
2022-09-23T00:03:24.172Z,82.16
2022-09-23T00:05:41.527Z,81.27
2022-09-23T00:07:58.587Z,82.24
2022-09-23T00:10:15.976Z,81.37
2022-09-23T00:12:33.008Z,81.89
2022-09-23T00:14:50.578Z,81.92
2022-09-23T00:17:07.689Z,82.08
2022-09-23T00:19:24.823Z,81.84
2022-09-23T00:21:41.758Z,82.75
2022-09-23T00:23:59.513Z,82.57
2022-09-23T00:26:16.514Z,82.56
2022-09-23T00:28:33.596Z,81.25
2022-09-23T00:30:50.906Z,82.30
2022-09-23T00:33:08.015Z,82.04
2022-09-23T00:35:25.248Z,82.22
2022-09-23T00:37:42.195Z,82.65
2022-09-23T00:39:59.187Z,81.99
2022-09-23T00:42:17.503Z,82.25
2022-09-23T00:44:35.125Z,81.23
2022-09-23T00:46:52.178Z,82.48
2022-09-23T00:49:09.135Z,81.70
2022-09-23T00:51:26.435Z,82.32
2022-09-23T00:53:43.767Z,82.00
2022-09-23T00:56:01.196Z,81.97
2022-09-23T00:58:19.465Z,81.91
2022-09-23T01:00:36.920Z,82.96
2022-09-23T01:02:54.127Z,81.87
2022-09-23T01:05:11.424Z,81.89
2022-09-23T01:07:28.507Z,82.21
2022-09-23T01:09:45.764Z,81.94
2022-09-23T01:12:03.038Z,82.49
2022-09-23T01:14:20.445Z,82.07
2022-09-23T01:16:37.676Z,82.64
2022-09-23T01:18:58.025Z,82.21
2022-09-23T01:21:15.303Z,81.90
2022-09-23T01:23:33.585Z,83.24
2022-09-23T01:25:50.578Z,82.18
2022-09-23T01:28:08.518Z,82.59
2022-09-23T01:30:25.682Z,81.95
2022-09-23T01:32:44.071Z,83.40
2022-09-23T01:35:01.099Z,82.73
2022-09-23T01:37:19.394Z,83.26
2022-09-23T01:39:36.672Z,82.63
2022-09-23T01:41:53.938Z,82.57
2022-09-23T01:44:11.289Z,83.29
2022-09-23T01:46:28.300Z,82.77
2022-09-23T01:48:48.016Z,82.11
2022-09-23T01:51:06.072Z,82.48
2022-09-23T01:53:23.486Z,83.29
2022-09-23T01:55:40.965Z,81.89
2022-09-23T01:57:58.955Z,82.86
2022-09-23T02:00:15.914Z,83.42
2022-09-23T02:02:32.981Z,82.99
2022-09-23T02:04:50.348Z,83.42
2022-09-23T02:07:07.604Z,83.75
2022-09-23T02:09:24.922Z,83.21
2022-09-23T02:11:42.206Z,83.59
2022-09-23T02:14:01.124Z,82.53
2022-09-23T02:16:18.319Z,82.49
2022-09-23T02:18:35.303Z,83.48
2022-09-23T02:20:53.700Z,83.49
2022-09-23T02:23:10.781Z,82.19
2022-09-23T02:25:28.004Z,83.22
2022-09-23T02:27:44.996Z,83.64
2022-09-23T02:30:02.039Z,84.03
2022-09-23T02:32:20.382Z,82.87
2022-09-23T02:34:39.035Z,83.64
2022-09-23T02:36:56.369Z,82.91
2022-09-23T02:39:14.975Z,83.69
2022-09-23T02:41:31.987Z,83.42
2022-09-23T02:43:49.093Z,83.99
2022-09-23T02:46:06.296Z,84.00
2022-09-23T02:48:24.715Z,83.26
2022-09-23T02:50:41.673Z,83.69
2022-09-23T02:52:58.699Z,83.37
2022-09-23T02:55:17.122Z,82.59
2022-09-23T02:57:35.204Z,82.80
2022-09-23T02:59:52.301Z,84.23
2022-09-23T03:02:09.376Z,83.69
2022-09-23T03:04:26.380Z,82.77
2022-09-23T03:06:43.626Z,82.85
2022-09-23T03:09:02.127Z,83.03
2022-09-23T03:11:19.368Z,83.33
2022-09-23T03:13:37.443Z,82.82
2022-09-23T03:15:54.455Z,83.78
2022-09-23T03:18:11.439Z,83.06
2022-09-23T03:20:28.549Z,82.49
2022-09-23T03:22:45.496Z,83.29
2022-09-23T03:25:02.804Z,83.11
2022-09-23T03:27:20.022Z,82.25
2022-09-23T03:29:37.224Z,82.72
2022-09-23T03:31:55.561Z,83.18
2022-09-23T03:34:13.885Z,82.74
2022-09-23T03:36:31.170Z,82.49
2022-09-23T03:38:48.232Z,82.90
2022-09-23T03:41:05.469Z,83.12
2022-09-23T03:43:22.509Z,83.62
2022-09-23T03:45:40.798Z,82.88
2022-09-23T03:47:57.944Z,82.56
2022-09-23T03:50:15.464Z,82.67
2022-09-23T03:52:32.735Z,82.75
2022-09-23T03:54:50.082Z,82.69
2022-09-23T03:57:07.076Z,82.28
2022-09-23T03:59:24.434Z,83.18
2022-09-23T04:01:41.742Z,82.42
2022-09-23T04:03:58.859Z,82.82
2022-09-23T04:06:16.464Z,82.78
2022-09-23T04:08:34.372Z,82.73
2022-09-23T04:10:54.744Z,83.54
2022-09-23T04:13:12.339Z,83.30
2022-09-23T04:15:29.390Z,83.43
2022-09-23T04:17:46.677Z,83.17
2022-09-23T04:20:04.012Z,83.02
2022-09-23T04:22:21.008Z,83.67
2022-09-23T04:24:38.055Z,83.29
2022-09-23T04:26:57.754Z,83.74
2022-09-23T04:29:15.000Z,82.72
2022-09-23T04:31:32.375Z,83.91
2022-09-23T04:33:49.327Z,83.50
2022-09-23T04:36:06.652Z,82.38
2022-09-23T04:38:23.725Z,83.06
2022-09-23T04:40:40.850Z,83.27
2022-09-23T04:42:58.200Z,83.01
2022-09-23T04:45:15.566Z,82.77
2022-09-23T04:47:32.856Z,83.73
2022-09-23T04:49:50.873Z,82.96
2022-09-23T04:52:08.065Z,83.15
2022-09-23T04:54:25.345Z,82.94
2022-09-23T04:56:43.626Z,83.02
2022-09-23T04:59:02.117Z,83.76
2022-09-23T05:01:19.170Z,83.98
2022-09-23T05:03:36.251Z,84.39
2022-09-23T05:05:53.259Z,84.17
2022-09-23T05:08:10.280Z,84.48
2022-09-23T05:10:27.827Z,83.95
2022-09-23T05:12:44.821Z,83.96
2022-09-23T05:15:02.074Z,84.14
2022-09-23T05:17:19.195Z,82.94
2022-09-23T05:19:36.178Z,83.59
2022-09-23T05:21:53.468Z,83.87
2022-09-23T05:24:10.688Z,83.46
2022-09-23T05:26:27.760Z,83.42
2022-09-23T05:28:44.830Z,83.45
2022-09-23T05:31:02.203Z,83.34
2022-09-23T05:33:19.251Z,83.83
2022-09-23T05:35:36.163Z,83.61
2022-09-23T05:37:54.424Z,83.12
2022-09-23T05:40:11.763Z,83.11
2022-09-23T05:42:28.877Z,83.45
2022-09-23T05:44:46.160Z,83.67
2022-09-23T05:47:04.106Z,83.63
2022-09-23T05:49:33.058Z,84.22
2022-09-23T05:51:58.843Z,84.02
2022-09-23T05:54:15.937Z,83.56
2022-09-23T05:56:32.922Z,83.52
2022-09-23T05:58:51.138Z,83.64
2022-09-23T06:01:11.691Z,83.13
2022-09-23T06:03:29.922Z,83.15
2022-09-23T06:05:47.373Z,84.25
2022-09-23T06:08:04.405Z,83.60
2022-09-23T06:10:22.674Z,83.25
2022-09-23T06:12:39.751Z,82.81
2022-09-23T06:14:56.808Z,82.47
2022-09-23T06:17:16.400Z,84.06
2022-09-23T06:19:33.471Z,82.63
2022-09-23T06:21:50.357Z,83.00
2022-09-23T06:24:07.858Z,83.18
2022-09-23T06:26:25.244Z,83.09
2022-09-23T06:28:42.608Z,83.53
2022-09-23T06:30:59.964Z,82.73
2022-09-23T06:33:20.460Z,82.60
2022-09-23T06:35:50.204Z,83.75
2022-09-23T06:38:12.113Z,83.21
2022-09-23T06:40:30.405Z,83.71
2022-09-23T06:42:52.093Z,83.87
2022-09-23T06:45:10.673Z,83.12
2022-09-23T06:47:27.844Z,83.18
2022-09-23T06:49:45.870Z,83.14
2022-09-23T06:52:02.925Z,83.46
2022-09-23T06:54:20.025Z,83.54
2022-09-23T06:56:39.441Z,83.12
2022-09-23T06:58:56.849Z,82.76
2022-09-23T07:01:14.011Z,82.41
2022-09-23T07:03:30.971Z,83.77
2022-09-23T07:05:48.187Z,82.87
2022-09-23T07:08:05.237Z,83.15
2022-09-23T07:10:22.273Z,82.97
2022-09-23T07:12:39.540Z,82.13
2022-09-23T07:14:56.746Z,82.56
2022-09-23T07:17:13.975Z,81.05
2022-09-23T07:19:31.212Z,81.10
2022-09-23T07:21:48.476Z,81.17
2022-09-23T07:24:07.053Z,80.71
2022-09-23T07:26:24.235Z,80.36
2022-09-23T07:28:41.151Z,79.69
2022-09-23T07:31:00.731Z,79.91
2022-09-23T07:33:30.779Z,79.95
2022-09-23T07:35:49.186Z,80.50
2022-09-23T07:38:06.552Z,80.56
2022-09-23T07:40:24.535Z,80.51
2022-09-23T07:42:41.891Z,80.39
2022-09-23T07:44:58.841Z,81.02
2022-09-23T07:47:16.858Z,80.66
2022-09-23T07:49:33.914Z,80.33
2022-09-23T07:51:51.766Z,80.60
2022-09-23T07:54:09.121Z,80.64
2022-09-23T07:56:26.364Z,79.83
2022-09-23T07:58:44.247Z,80.93
2022-09-23T08:01:01.305Z,80.05
2022-09-23T08:03:18.635Z,79.89
2022-09-23T08:05:35.669Z,79.67
2022-09-23T08:07:53.900Z,79.63
2022-09-23T08:10:12.059Z,78.33
2022-09-23T08:12:31.354Z,78.61
2022-09-23T08:14:48.235Z,76.81
2022-09-23T08:17:05.464Z,77.09
2022-09-23T08:19:22.456Z,77.46
2022-09-23T08:21:41.401Z,76.66
2022-09-23T08:23:58.450Z,76.08
2022-09-23T08:26:21.258Z,75.46
2022-09-23T08:28:40.625Z,76.33
2022-09-23T08:30:58.006Z,75.30
2022-09-23T08:33:16.677Z,75.18
2022-09-23T08:35:36.955Z,75.50
2022-09-23T08:37:53.967Z,74.89
2022-09-23T08:40:10.936Z,73.80
2022-09-23T08:42:28.234Z,73.76
2022-09-23T08:44:46.265Z,74.12
2022-09-23T08:47:04.043Z,73.69
2022-09-23T08:49:21.364Z,73.05
2022-09-23T08:51:38.243Z,72.91
2022-09-23T08:53:55.693Z,72.25
2022-09-23T08:56:13.286Z,72.11
2022-09-23T08:58:31.223Z,71.33
2022-09-23T09:00:48.213Z,70.74
2022-09-23T09:03:06.230Z,69.06
2022-09-23T09:05:23.494Z,69.68
2022-09-23T09:07:41.724Z,68.79
2022-09-23T09:09:58.707Z,67.76
2022-09-23T09:12:15.595Z,65.50
2022-09-23T09:14:33.634Z,64.54
2022-09-23T09:17:02.690Z,65.12
2022-09-23T09:19:20.706Z,65.05
2022-09-23T09:21:37.765Z,64.59
2022-09-23T09:23:55.976Z,62.98
2022-09-23T09:26:14.068Z,60.91
2022-09-23T09:28:31.170Z,61.14
2022-09-23T09:30:52.180Z,62.49
2022-09-23T09:33:09.163Z,60.63
2022-09-23T09:35:26.211Z,60.61
2022-09-23T09:37:43.499Z,59.26
2022-09-23T09:40:01.790Z,58.63
2022-09-23T09:42:19.139Z,58.25
2022-09-23T09:44:37.203Z,57.66
2022-09-23T09:46:54.442Z,58.13
2022-09-23T09:49:11.439Z,57.41
2022-09-23T09:51:28.372Z,57.84
2022-09-23T09:53:45.586Z,57.30
2022-09-23T09:56:05.866Z,55.31
2022-09-23T09:58:23.221Z,56.38
2022-09-23T10:00:42.371Z,56.31
2022-09-23T10:02:59.693Z,56.81
2022-09-23T10:05:16.930Z,56.15
2022-09-23T10:07:33.819Z,55.55
2022-09-23T10:09:50.826Z,55.40
2022-09-23T10:12:08.174Z,55.12
2022-09-23T10:14:25.467Z,55.64
2022-09-23T10:16:42.539Z,56.05
2022-09-23T10:19:06.960Z,54.60
2022-09-23T10:21:27.711Z,54.27
2022-09-23T10:23:45.059Z,54.87
2022-09-23T10:26:02.367Z,54.10
2022-09-23T10:28:20.626Z,55.20
2022-09-23T10:30:37.852Z,54.87
2022-09-23T10:32:57.983Z,53.92
2022-09-23T10:35:16.044Z,53.60
2022-09-23T10:37:33.104Z,53.94
2022-09-23T10:39:50.142Z,55.42
2022-09-23T10:42:07.555Z,54.44
2022-09-23T10:44:24.905Z,54.46
2022-09-23T10:46:41.864Z,54.97
2022-09-23T10:48:59.677Z,55.58
2022-09-23T10:51:16.626Z,54.35
2022-09-23T10:53:34.103Z,55.75
2022-09-23T10:55:51.649Z,55.46
2022-09-23T10:58:08.957Z,55.41
2022-09-23T11:00:26.043Z,54.07
2022-09-23T11:02:43.070Z,55.95
2022-09-23T11:05:00.024Z,53.83
2022-09-23T11:07:17.456Z,53.47
2022-09-23T11:09:34.471Z,53.63
2022-09-23T11:11:51.426Z,53.16
2022-09-23T11:14:08.483Z,52.17
2022-09-23T11:16:25.573Z,52.19
2022-09-23T11:18:42.903Z,53.64
2022-09-23T11:21:00.126Z,50.24
2022-09-23T11:23:17.712Z,50.64
2022-09-23T11:25:34.841Z,51.07
2022-09-23T11:27:52.927Z,52.19
2022-09-23T11:30:12.172Z,53.08
2022-09-23T11:32:29.216Z,53.05
2022-09-23T11:34:48.893Z,50.58
2022-09-23T11:37:08.071Z,52.16
2022-09-23T11:39:25.189Z,51.58
2022-09-23T11:41:42.323Z,51.45
2022-09-23T11:43:59.261Z,50.18
2022-09-23T11:46:17.611Z,50.26
2022-09-23T11:48:35.618Z,50.48
2022-09-23T11:50:52.650Z,49.58
2022-09-23T11:53:09.759Z,51.57
2022-09-23T11:55:26.762Z,52.23
2022-09-23T11:57:48.811Z,50.02
2022-09-23T12:00:06.512Z,50.52
2022-09-23T12:02:28.196Z,51.79
2022-09-23T12:04:55.684Z,51.41
2022-09-23T12:07:14.368Z,51.57
2022-09-23T12:09:56.618Z,51.20
2022-09-23T12:12:09.738Z,51.26
2022-09-23T12:14:26.989Z,51.63
2022-09-23T12:16:44.426Z,50.23
2022-09-23T12:19:01.498Z,49.99
2022-09-23T12:23:56.518Z,50.40
2022-09-23T12:26:13.678Z,50.29
2022-09-23T12:28:30.798Z,50.65
2022-09-23T12:30:50.224Z,49.98
2022-09-23T12:33:07.394Z,51.47
2022-09-23T12:35:24.682Z,51.93
2022-09-23T12:37:41.641Z,50.98
2022-09-23T12:39:58.582Z,51.28
2022-09-23T12:42:15.642Z,51.72
2022-09-23T12:44:32.743Z,53.00
2022-09-23T12:46:50.298Z,51.89
2022-09-23T12:49:08.300Z,52.35
2022-09-23T12:51:25.453Z,52.59
2022-09-23T12:53:42.806Z,50.92
2022-09-23T12:56:00.177Z,49.76
2022-09-23T12:58:17.200Z,49.90
2022-09-23T13:00:34.527Z,49.60
2022-09-23T13:02:51.645Z,49.51
2022-09-23T13:05:08.890Z,50.08
2022-09-23T13:07:27.193Z,49.09
2022-09-23T13:09:44.466Z,48.93
2022-09-23T13:12:04.362Z,49.49
2022-09-23T13:14:26.615Z,49.86
2022-09-23T13:16:44.583Z,49.14
2022-09-23T13:19:01.889Z,48.71
2022-09-23T13:21:21.728Z,48.43
2022-09-23T13:23:38.844Z,49.41
2022-09-23T13:25:55.789Z,47.52
2022-09-23T13:28:12.854Z,49.05
2022-09-23T13:30:31.207Z,48.96
2022-09-23T13:32:50.635Z,48.87
2022-09-23T13:35:07.584Z,47.73
2022-09-23T13:37:24.865Z,48.71
2022-09-23T13:39:42.167Z,49.35
2022-09-23T13:41:59.689Z,49.73
2022-09-23T13:44:19.058Z,49.56
2022-09-23T13:46:36.577Z,50.01
2022-09-23T13:48:54.822Z,47.93
2022-09-23T13:51:13.357Z,48.59
2022-09-23T13:53:30.659Z,48.81
2022-09-23T13:55:52.254Z,48.68
2022-09-23T13:58:10.521Z,47.03
2022-09-23T14:00:27.500Z,48.57
2022-09-23T14:02:44.864Z,49.09
2022-09-23T14:05:02.990Z,46.99
2022-09-23T14:07:22.419Z,44.97
2022-09-23T14:09:40.302Z,46.57
2022-09-23T14:11:57.537Z,45.26
2022-09-23T14:14:14.808Z,45.79
2022-09-23T14:16:31.809Z,45.39
2022-09-23T14:18:49.045Z,46.90
2022-09-23T14:21:06.940Z,47.47
2022-09-23T14:23:23.877Z,48.93
2022-09-23T14:25:41.219Z,51.47
2022-09-23T14:28:00.563Z,53.85
2022-09-23T14:30:17.787Z,54.30
2022-09-23T14:32:34.723Z,57.22
2022-09-23T14:34:51.727Z,55.91
2022-09-23T14:37:08.592Z,57.16
2022-09-23T14:39:25.902Z,59.22
2022-09-23T14:41:43.837Z,59.17
2022-09-23T14:44:00.943Z,58.10
2022-09-23T14:46:17.946Z,59.71
2022-09-23T14:48:35.254Z,60.69
2022-09-23T14:50:52.242Z,60.91
2022-09-23T14:53:10.528Z,60.55
2022-09-23T14:55:27.482Z,58.48
2022-09-23T14:57:44.388Z,59.81
2022-09-23T15:00:01.438Z,60.28
2022-09-23T15:02:18.636Z,61.03
2022-09-23T15:04:38.055Z,61.17
2022-09-23T15:06:55.063Z,62.51
2022-09-23T15:09:12.065Z,61.94
2022-09-23T15:11:29.071Z,62.40
2022-09-23T15:13:46.063Z,62.87
2022-09-23T15:16:03.384Z,63.22
2022-09-23T15:18:20.409Z,63.13
2022-09-23T15:20:38.444Z,63.29
2022-09-23T15:22:55.449Z,63.86
2022-09-23T15:25:12.409Z,63.62
2022-09-23T15:27:30.778Z,62.17
2022-09-23T15:29:48.164Z,65.30
2022-09-23T15:32:05.185Z,65.18
2022-09-23T15:34:22.481Z,62.85
2022-09-23T15:36:40.046Z,63.77
2022-09-23T15:38:57.257Z,63.80
2022-09-23T15:41:15.474Z,63.43
2022-09-23T15:43:33.119Z,63.18
2022-09-23T15:45:50.106Z,65.58
2022-09-23T15:48:07.146Z,65.16
2022-09-23T15:50:25.062Z,64.51
2022-09-23T15:52:43.335Z,65.46
2022-09-23T15:55:00.501Z,66.50
2022-09-23T15:57:18.511Z,68.26
2022-09-23T15:59:35.383Z,68.61
2022-09-23T16:01:53.184Z,68.83
2022-09-23T16:04:10.231Z,67.82
2022-09-23T16:06:28.280Z,68.54
2022-09-23T16:08:45.495Z,67.69
2022-09-23T16:11:02.668Z,68.49
2022-09-23T16:13:19.656Z,68.19
2022-09-23T16:15:36.694Z,68.29
2022-09-23T16:17:53.811Z,67.69
2022-09-23T16:20:11.671Z,68.56
2022-09-23T16:22:28.894Z,69.78
2022-09-23T16:24:46.038Z,69.73
2022-09-23T16:27:03.273Z,70.94
2022-09-23T16:29:20.500Z,70.65
2022-09-23T16:31:39.970Z,70.93
2022-09-23T16:33:57.275Z,70.37
2022-09-23T16:36:14.469Z,70.52
2022-09-23T16:38:31.447Z,70.29
2022-09-23T16:40:49.376Z,71.75
2022-09-23T16:43:06.318Z,71.28
2022-09-23T16:45:23.402Z,70.69
2022-09-23T16:47:40.708Z,70.55
2022-09-23T16:49:57.707Z,72.74
2022-09-23T16:52:14.627Z,72.57
2022-09-23T16:54:31.629Z,72.10
2022-09-23T16:56:48.649Z,73.82
2022-09-23T16:59:05.750Z,75.23
2022-09-23T17:01:23.303Z,74.65
2022-09-23T17:03:40.273Z,75.02
2022-09-23T17:05:58.708Z,73.46
2022-09-23T17:08:15.955Z,74.44
2022-09-23T17:10:33.739Z,75.53
2022-09-23T17:12:51.096Z,76.71
2022-09-23T17:15:08.082Z,75.63
2022-09-23T17:17:26.048Z,75.57
2022-09-23T17:19:44.285Z,75.82
2022-09-23T17:22:01.461Z,75.69
2022-09-23T17:24:18.440Z,75.83
2022-09-23T17:26:35.906Z,73.72
2022-09-23T17:28:53.136Z,73.79
2022-09-23T17:31:11.430Z,73.11
2022-09-23T17:33:28.477Z,71.93
2022-09-23T17:35:46.736Z,72.31
2022-09-23T17:38:03.968Z,74.40
2022-09-23T17:40:22.338Z,74.71
2022-09-23T17:42:39.682Z,75.09
2022-09-23T17:44:57.688Z,75.31
2022-09-23T17:47:14.691Z,76.50
2022-09-23T17:49:31.966Z,77.12
2022-09-23T17:51:48.892Z,75.45
2022-09-23T17:54:05.843Z,75.84
2022-09-23T17:56:23.488Z,75.71
2022-09-23T17:58:40.494Z,76.19
2022-09-23T18:00:58.511Z,77.62
2022-09-23T18:03:15.582Z,76.77
2022-09-23T18:05:33.800Z,78.82
2022-09-23T18:07:50.732Z,78.89
2022-09-23T18:10:09.522Z,78.40
2022-09-23T18:12:28.105Z,76.52
2022-09-23T18:14:45.097Z,78.42
2022-09-23T18:17:03.384Z,79.09
2022-09-23T18:19:20.833Z,78.08
2022-09-23T18:21:39.052Z,78.30
2022-09-23T18:24:06.493Z,78.81
2022-09-23T18:26:33.620Z,78.76
2022-09-23T18:28:51.777Z,79.04
2022-09-23T18:31:09.167Z,78.09
2022-09-23T18:33:27.232Z,78.41
2022-09-23T18:35:44.456Z,76.99
2022-09-23T18:38:01.935Z,78.63
2022-09-23T18:40:20.272Z,77.86
2022-09-23T18:42:39.788Z,77.98
2022-09-23T18:44:56.821Z,78.24
2022-09-23T18:47:15.158Z,78.39
2022-09-23T18:49:32.143Z,78.46
2022-09-23T18:51:49.432Z,79.70
2022-09-23T18:54:06.759Z,79.52
2022-09-23T18:56:23.801Z,79.09
2022-09-23T18:58:40.974Z,79.80
2022-09-23T19:00:58.989Z,79.17
2022-09-23T19:03:16.066Z,79.72
2022-09-23T19:05:33.347Z,80.38
2022-09-23T19:07:50.228Z,80.33
2022-09-23T19:10:07.577Z,80.61
2022-09-23T19:12:25.553Z,80.68
2022-09-23T19:14:42.489Z,80.45
2022-09-23T19:17:00.025Z,80.90
2022-09-23T19:19:16.914Z,80.51
2022-09-23T19:21:34.174Z,80.41
2022-09-23T19:23:52.157Z,80.47
2022-09-23T19:26:09.196Z,80.31
2022-09-23T19:28:26.222Z,80.32
2022-09-23T19:30:43.488Z,80.42
2022-09-23T19:33:00.492Z,80.63
2022-09-23T19:35:18.816Z,81.20
2022-09-23T19:37:36.731Z,80.94
2022-09-23T19:39:53.790Z,81.34
2022-09-23T19:42:10.821Z,81.09
2022-09-23T19:44:29.015Z,81.28
2022-09-23T19:46:46.324Z,81.24
2022-09-23T19:49:03.631Z,81.35
2022-09-23T19:51:20.631Z,81.24
2022-09-23T19:53:38.979Z,81.34
2022-09-23T19:55:56.267Z,81.24
2022-09-23T19:58:13.210Z,81.39
2022-09-23T20:00:30.583Z,81.16
2022-09-23T20:02:47.816Z,80.97
2022-09-23T20:05:05.089Z,81.84
2022-09-23T20:07:22.048Z,81.25
2022-09-23T20:09:38.929Z,81.65
2022-09-23T20:11:55.859Z,81.48
2022-09-23T20:14:13.155Z,81.73
2022-09-23T20:16:30.290Z,81.81
2022-09-23T20:18:48.300Z,82.07
2022-09-23T20:21:05.439Z,82.30
2022-09-23T20:23:22.409Z,82.87
2022-09-23T20:25:40.890Z,81.90
2022-09-23T20:27:59.228Z,81.96
2022-09-23T20:30:16.478Z,83.21
2022-09-23T20:32:33.500Z,82.38
2022-09-23T20:34:51.348Z,83.15
2022-09-23T20:37:08.930Z,82.90
2022-09-23T20:39:26.158Z,82.17
2022-09-23T20:41:44.074Z,82.85
2022-09-23T20:44:01.016Z,82.04
2022-09-23T20:46:19.070Z,82.18
2022-09-23T20:48:36.407Z,83.24
2022-09-23T20:50:54.424Z,82.59
2022-09-23T20:53:12.799Z,83.83
2022-09-23T20:55:29.773Z,83.88
2022-09-23T20:57:46.802Z,82.54
2022-09-23T21:00:03.783Z,82.46
2022-09-23T21:02:21.064Z,82.77
2022-09-23T21:04:37.973Z,82.79
2022-09-23T21:06:55.605Z,83.83
2022-09-23T21:09:12.783Z,82.40
2022-09-23T21:11:29.989Z,82.44
2022-09-23T21:13:49.339Z,82.61
2022-09-23T21:16:07.322Z,82.99
2022-09-23T21:18:24.626Z,83.05
2022-09-23T21:20:42.065Z,83.05
2022-09-23T21:22:59.067Z,83.11
2022-09-23T21:25:27.378Z,83.98
2022-09-23T21:27:45.640Z,83.22
2022-09-23T21:30:02.913Z,83.41
2022-09-23T21:32:19.861Z,83.33
2022-09-23T21:34:37.200Z,82.70
2022-09-23T21:36:54.454Z,82.99
2022-09-23T21:39:12.665Z,83.45
2022-09-23T21:41:29.632Z,83.13
2022-09-23T21:43:47.644Z,84.46
2022-09-23T21:46:04.606Z,82.75
2022-09-23T21:48:21.910Z,83.25
2022-09-23T21:50:39.147Z,82.84
2022-09-23T21:52:57.339Z,83.08
2022-09-23T21:55:14.575Z,83.25
2022-09-23T21:57:31.814Z,83.28
2022-09-23T21:59:49.069Z,84.46
2022-09-23T22:02:06.274Z,84.74
2022-09-23T22:04:23.328Z,84.18
2022-09-23T22:06:40.699Z,83.24
2022-09-23T22:08:57.581Z,84.16
2022-09-23T22:11:15.601Z,84.71
2022-09-23T22:13:32.527Z,84.35
2022-09-23T22:15:49.560Z,84.30
2022-09-23T22:18:06.489Z,84.14
2022-09-23T22:20:24.712Z,85.13
2022-09-23T22:22:41.949Z,83.72
2022-09-23T22:24:58.975Z,84.57
2022-09-23T22:27:15.966Z,84.65
2022-09-23T22:29:32.866Z,84.03
2022-09-23T22:31:49.917Z,84.85
2022-09-23T22:34:08.253Z,83.80
2022-09-23T22:36:30.877Z,85.21
2022-09-23T22:38:48.127Z,85.31
2022-09-23T22:41:05.135Z,84.07
2022-09-23T22:43:22.176Z,85.49
2022-09-23T22:45:39.208Z,85.62
2022-09-23T22:47:56.103Z,85.08
2022-09-23T22:50:14.031Z,84.99
2022-09-23T22:52:31.147Z,84.86
2022-09-23T22:54:48.022Z,84.24
2022-09-23T22:57:05.931Z,84.16
2022-09-23T22:59:22.937Z,85.23
2022-09-23T23:01:40.208Z,85.42
2022-09-23T23:03:57.262Z,84.28
2022-09-23T23:06:14.618Z,85.83
2022-09-23T23:08:32.552Z,84.70
2022-09-23T23:10:49.858Z,84.96
2022-09-23T23:13:07.945Z,84.44
2022-09-23T23:15:26.330Z,84.36
2022-09-23T23:17:43.765Z,84.92
2022-09-23T23:20:01.762Z,83.70
2022-09-23T23:22:18.689Z,84.01
2022-09-23T23:24:36.221Z,84.26
2022-09-23T23:26:53.133Z,84.02
2022-09-23T23:29:11.386Z,84.23
2022-09-23T23:31:28.789Z,84.49
2022-09-23T23:33:48.671Z,84.11
2022-09-23T23:36:06.286Z,85.08
2022-09-23T23:38:24.594Z,84.00
2022-09-23T23:40:41.631Z,85.11
2022-09-23T23:42:58.611Z,84.41
2022-09-23T23:45:15.504Z,85.27
2022-09-23T23:47:32.422Z,85.17
2022-09-23T23:49:49.525Z,84.89
2022-09-23T23:52:07.734Z,84.05
2022-09-23T23:54:25.942Z,85.52
2022-09-23T23:56:43.161Z,84.72
2022-09-23T23:59:00.238Z,84.64
